Kahului, HI

9:58 PM HST on December 10, 2016 (GMT -1000)
Maunaleo | | Change Station

Elev 358 ft 20.87 °N, 156.50 °W | Updated 9 seconds ago

Rain
Rain
69.6 °F
Feels Like 69.6 °F
N
4.0
Wind Variable Wind from South

Today
High -- | Low -- °F
--% Chance of Precip.
Yesterday
High -- | Low -- °F
Precip. -- in
Pressure 30.03 in
Visibility 7.0 miles
Clouds Few 1500 ft
Mostly Cloudy 4000 ft
Overcast 6500 ft
Dew Point 69 °F
Humidity 98%
Rainfall 0.83 in
Snow Depth Not available.
6:52 AM 5:45 PM
Waxing Gibbous, 90% visible
METAR PHOG 110754Z 19007KT 7SM -RA FEW015 BKN040 OVC065 22/21 A3002 RMK AO2 SLP169 P0024 T02170206
Pressure 30.03 in
Visibility 7.0 miles
Clouds Few 1500 ft
Mostly Cloudy 4000 ft
Overcast 6500 ft
Dew Point 69 °F
Humidity 98%
Rainfall 0.83 in
Snow Depth Not available.
6:52 AM 5:45 PM
Waxing Gibbous, 90% visible
METAR PHOG 110754Z 19007KT 7SM -RA FEW015 BKN040 OVC065 22/21 A3002 RMK AO2 SLP169 P0024 T02170206

10-Day Weather Forecast

Almanac

Astronomy

Dec. 10, 2016 Rise Set
Actual Time
Civil Twilight
Nautical Twilight
Astronomical Twilight
Moon
Length of Visible Light
Length of Day
Tomorrow will be .
, % of the Moon is Illuminated

Today's Extremes

State Highs State Lows

Community

WunderPhotos

Upload Photos

1,956,707 photos uploaded!

WunderBlog® & News

Nearby

Air Quality

  Air Quality AQ Index Pollutant
Not available.

Snow Depth

Station Depth Elevation

Earthquake Activity

City Distance Mag. Time & Date
Minimum magnitude displayed is 2.5.

Coastal Water Temperatures

Place Temperature

Stations

Nearby Weather Stations

Station Location Temp. Windchill Dew Point Humidity Wind Precip. Elev Updated Type
                   

Watches & Warnings

There are currently no watches in effect.